Time;durP1;ratioP1;P1;durP2;ratioP2;P2;SDS_P1;SDS_P2;PMS_P1;PMS_P2;Temp;Humidity;BMP_temperature;BMP_pressure;BME280_temperature;BME280_humidity;BME280_pressure;Samples;Min_cycle;Max_cycle;Signal;HPM_P1;HPM_P2
2022/03/07 00:00:20;;;;;;;;;;;;;;;5.71;53.01;101566.38;4893316;29;19918;-72
2022/03/07 00:02:45;;;;;;;;;;;;;;;5.67;54.01;101565.13;4891066;29;19926;-71
2022/03/07 00:05:10;;;;;;;;;;;;;;;5.64;53.41;101562.81;4862569;29;19975;-71
2022/03/07 00:07:36;;;;;;;;;;;;;;;5.62;53.82;101562.16;4893096;29;19974;-71
2022/03/07 00:10:03;;;;;;;;;;;;;;;5.60;53.87;101553.41;4911105;29;20011;-71
2022/03/07 00:12:29;;;;;;;;;;;;;;;5.57;53.93;101551.13;4893548;29;19999;-71
2022/03/07 00:14:54;;;;;;;;;;;;;;;5.53;54.27;101552.56;4873458;29;20344;-72
2022/03/07 00:17:20;;;;;;;;;;;;;;;5.50;54.36;101547.53;4878270;29;19919;-70
2022/03/07 00:19:45;;;;;;;;;;;;;;;5.47;54.59;101550.66;4877003;29;19950;-70
2022/03/07 00:22:11;;;;;;;;;;;;;;;5.46;54.41;101557.13;4888011;29;20404;-71
2022/03/07 00:24:38;;;;;;;;;;;;;;;5.42;54.61;101549.41;4891529;29;19923;-70
2022/03/07 00:27:04;;;;;;;;;;;;;;;5.40;54.43;101543.34;4893397;29;20345;-74
2022/03/07 00:29:29;;;;;;;;;;;;;;;5.36;54.75;101543.94;4890288;29;19911;-74
2022/03/07 00:31:55;;;;;;;;;;;;;;;5.30;54.06;101542.91;4882470;29;19911;-73
2022/03/07 00:34:20;;;;;;;;;;;;;;;5.25;54.41;101550.81;4873813;29;21037;-72
2022/03/07 00:36:46;;;;;;;;;;;;;;;5.20;54.06;101545.16;4876443;29;19963;-71
2022/03/07 00:39:11;;;;;;;;;;;;;;;5.17;54.10;101545.53;4868688;29;19930;-74
2022/03/07 00:41:36;;;;;;;;;;;;;;;5.14;54.22;101546.81;4879131;29;19967;-74
2022/03/07 00:44:02;;;;;;;;;;;;;;;5.13;55.07;101541.59;4886743;29;19915;-73
2022/03/07 00:46:27;;;;;;;;;;;;;;;5.13;54.69;101547.00;4903216;29;19946;-75
2022/03/07 00:48:55;;;;;;;;;;;;;;;5.13;54.69;101544.31;4898943;29;19915;-74
2022/03/07 00:51:23;;;;;;;;;;;;;;;5.14;54.88;101543.25;4882609;29;20297;-73
2022/03/07 00:53:48;;;;;;;;;;;;;;;5.18;55.33;101539.94;4898940;29;19954;-74
2022/03/07 00:56:13;;;;;;;;;;;;;;;5.20;55.09;101547.88;4889788;29;19941;-73
2022/03/07 00:58:39;;;;;;;;;;;;;;;5.24;55.50;101543.69;4875969;29;19916;-74
2022/03/07 01:01:04;;;;;;;;;;;;;;;5.25;55.58;101542.66;4868276;29;19989;-74
2022/03/07 01:03:29;;;;;;;;;;;;;;;5.27;55.15;101540.59;4879851;29;19915;-74
2022/03/07 01:05:55;;;;;;;;;;;;;;;5.29;55.60;101541.22;4879334;29;19919;-74
2022/03/07 01:08:20;;;;;;;;;;;;;;;5.31;55.18;101539.13;4883132;29;19916;-74
2022/03/07 01:10:48;;;;;;;;;;;;;;;5.34;55.58;101538.72;4889104;29;19919;-74
2022/03/07 01:13:15;;;;;;;;;;;;;;;5.36;55.71;101547.50;4877929;29;20585;-74
2022/03/07 01:15:41;;;;;;;;;;;;;;;5.39;55.34;101540.84;4867846;29;19971;-73
2022/03/07 01:18:06;;;;;;;;;;;;;;;5.42;55.41;101538.56;4887164;29;21309;-74
2022/03/07 01:20:32;;;;;;;;;;;;;;;5.45;55.65;101539.16;4881711;29;20019;-73
2022/03/07 01:23:00;;;;;;;;;;;;;;;5.48;54.96;101538.78;4898990;29;19972;-73
2022/03/07 01:25:25;;;;;;;;;;;;;;;5.48;55.51;101538.78;4883031;29;19916;-75
2022/03/07 01:27:50;;;;;;;;;;;;;;;5.49;55.12;101540.44;4883373;29;19938;-72
2022/03/07 01:30:16;;;;;;;;;;;;;;;5.50;55.64;101536.69;4891229;29;20014;-75
2022/03/07 01:32:41;;;;;;;;;;;;;;;5.48;55.89;101528.75;4851032;29;19958;-76
2022/03/07 01:35:07;;;;;;;;;;;;;;;5.45;55.65;101528.31;4880230;29;19919;-73
2022/03/07 01:37:33;;;;;;;;;;;;;;;5.40;55.74;101523.50;4880179;29;20425;-73
2022/03/07 01:39:58;;;;;;;;;;;;;;;5.36;54.86;101522.25;4887788;29;19958;-74
2022/03/07 01:42:23;;;;;;;;;;;;;;;5.32;55.47;101523.72;4872184;29;19923;-74
2022/03/07 01:44:49;;;;;;;;;;;;;;;5.29;55.47;101530.38;4871691;29;19924;-72
2022/03/07 01:47:14;;;;;;;;;;;;;;;5.30;55.85;101525.78;4871093;29;19919;-72
2022/03/07 01:49:40;;;;;;;;;;;;;;;5.32;55.62;101521.00;4871961;29;19919;-72
2022/03/07 01:52:06;;;;;;;;;;;;;;;5.33;55.34;101515.38;4871574;29;20309;-71
2022/03/07 01:54:31;;;;;;;;;;;;;;;5.35;55.92;101513.28;4874342;29;20382;-72
2022/03/07 01:56:57;;;;;;;;;;;;;;;5.38;56.08;101507.44;4873568;29;19916;-73
2022/03/07 01:59:26;;;;;;;;;;;;;;;5.39;55.86;101509.13;4865522;29;19947;-73
2022/03/07 02:01:52;;;;;;;;;;;;;;;5.38;55.58;101507.44;4873598;29;19983;-71
2022/03/07 02:04:18;;;;;;;;;;;;;;;5.41;55.70;101509.75;4862969;29;19920;-71
2022/03/07 02:06:44;;;;;;;;;;;;;;;5.39;55.66;101498.28;4865815;29;19940;-71
2022/03/07 02:09:10;;;;;;;;;;;;;;;5.42;56.19;101508.72;4867618;29;19922;-72
2022/03/07 02:11:36;;;;;;;;;;;;;;;5.47;55.98;101505.38;4885033;29;19923;-72
2022/03/07 02:14:13;;;;;;;;;;;;;;;5.51;56.49;101505.81;4870693;29;19986;-72
2022/03/07 02:16:39;;;;;;;;;;;;;;;5.56;55.98;101514.16;4869682;29;19924;-71
2022/03/07 02:19:07;;;;;;;;;;;;;;;5.60;56.59;101507.28;4870424;29;19943;-71
2022/03/07 02:21:35;;;;;;;;;;;;;;;5.64;56.15;101511.25;4871789;29;19916;-71
2022/03/07 02:24:00;;;;;;;;;;;;;;;5.68;56.11;101498.94;4877563;29;19916;-69
2022/03/07 02:26:29;;;;;;;;;;;;;;;5.73;56.59;101499.16;4877004;29;20370;-71
2022/03/07 02:28:54;;;;;;;;;;;;;;;5.75;56.40;101491.66;4868137;29;19923;-72
2022/03/07 02:31:20;;;;;;;;;;;;;;;5.77;56.59;101484.13;4885543;29;19923;-72
2022/03/07 02:33:48;;;;;;;;;;;;;;;5.82;55.99;101479.97;4884361;29;20007;-73
2022/03/07 02:36:14;;;;;;;;;;;;;;;5.83;56.67;101476.22;4880102;29;20015;-73
2022/03/07 02:38:39;;;;;;;;;;;;;;;5.83;55.79;101470.78;4878006;29;20593;-72
2022/03/07 02:41:04;;;;;;;;;;;;;;;5.83;56.36;101460.75;4865603;29;19923;-73
2022/03/07 02:43:30;;;;;;;;;;;;;;;5.84;56.44;101458.84;4883219;29;19915;-72
2022/03/07 02:45:58;;;;;;;;;;;;;;;5.83;56.25;101455.31;4895724;29;19916;-72
2022/03/07 02:48:24;;;;;;;;;;;;;;;5.83;56.69;101455.31;4867844;29;19923;-73
2022/03/07 02:50:50;;;;;;;;;;;;;;;5.87;56.83;101442.16;4892268;29;19974;-71
2022/03/07 02:53:15;;;;;;;;;;;;;;;5.87;56.44;101450.28;4880177;29;19963;-73
2022/03/07 02:55:40;;;;;;;;;;;;;;;5.87;57.02;101440.28;4900051;29;19915;-71
2022/03/07 02:58:06;;;;;;;;;;;;;;;5.89;56.45;101443.63;4903559;29;20434;-71
2022/03/07 03:00:32;;;;;;;;;;;;;;;5.92;56.49;101440.47;4890979;29;19911;-73
2022/03/07 03:02:57;;;;;;;;;;;;;;;5.96;56.74;101438.19;4911278;29;19911;-72
2022/03/07 03:05:23;;;;;;;;;;;;;;;5.98;56.59;101438.00;4892459;29;19918;-71
2022/03/07 03:07:50;;;;;;;;;;;;;;;6.02;57.06;101431.13;4910652;29;20329;-72
2022/03/07 03:10:16;;;;;;;;;;;;;;;6.02;56.00;101426.50;4889655;29;20297;-73
2022/03/07 03:12:42;;;;;;;;;;;;;;;6.00;56.58;101420.47;4871310;29;20026;-72
2022/03/07 03:15:07;;;;;;;;;;;;;;;6.00;56.25;101416.91;4894185;29;19979;-72
2022/03/07 03:17:32;;;;;;;;;;;;;;;6.00;55.93;101415.03;4898706;29;19918;-73
2022/03/07 03:20:00;;;;;;;;;;;;;;;6.00;55.85;101411.47;4898314;29;19918;-73
2022/03/07 03:22:25;;;;;;;;;;;;;;;5.99;56.80;101416.06;4871855;29;20357;-73
2022/03/07 03:24:51;;;;;;;;;;;;;;;5.97;56.48;101407.28;4865317;29;19930;-72
2022/03/07 03:27:16;;;;;;;;;;;;;;;5.96;56.00;101405.59;4870756;29;19975;-72
2022/03/07 03:29:41;;;;;;;;;;;;;;;5.94;56.67;101396.81;4882824;29;19915;-73
2022/03/07 03:32:07;;;;;;;;;;;;;;;5.97;56.08;101401.84;4891365;29;20001;-72
2022/03/07 03:34:36;;;;;;;;;;;;;;;5.97;56.20;101398.28;4880108;29;19923;-72
2022/03/07 03:37:01;;;;;;;;;;;;;;;5.95;56.02;101390.34;4862386;29;19919;-71
2022/03/07 03:39:27;;;;;;;;;;;;;;;5.90;56.05;101392.88;4879524;29;19915;-73
2022/03/07 03:41:52;;;;;;;;;;;;;;;5.89;56.87;101380.34;4897596;29;19956;-72
2022/03/07 03:44:17;;;;;;;;;;;;;;;5.89;56.25;101383.06;4864408;29;19946;-71
2022/03/07 03:46:45;;;;;;;;;;;;;;;5.90;56.93;101380.13;4891628;29;19966;-73
2022/03/07 03:49:10;;;;;;;;;;;;;;;5.93;56.59;101373.47;4878981;29;20039;-72
2022/03/07 03:51:36;;;;;;;;;;;;;;;5.97;56.30;101377.41;4880837;29;19919;-72
2022/03/07 03:54:01;;;;;;;;;;;;;;;5.99;57.09;101372.63;4886614;29;19920;-72
2022/03/07 03:56:27;;;;;;;;;;;;;;;6.01;56.99;101369.69;4880703;29;19915;-72
2022/03/07 03:58:52;;;;;;;;;;;;;;;6.02;56.38;101372.19;4876200;29;19950;-74
2022/03/07 04:01:17;;;;;;;;;;;;;;;6.02;57.00;101366.78;4949006;23;20348;-71
2022/03/07 04:03:43;;;;;;;;;;;;;;;6.02;56.11;101377.63;4945539;28;19929;-72
2022/03/07 04:06:08;;;;;;;;;;;;;;;6.00;56.01;101368.88;4955695;28;20353;-71
2022/03/07 04:08:44;;;;;;;;;;;;;;;5.99;56.42;101367.19;4968571;28;19918;-71
2022/03/07 04:11:10;;;;;;;;;;;;;;;5.98;56.26;101370.13;4973533;28;19918;-71
2022/03/07 04:13:35;;;;;;;;;;;;;;;5.97;56.02;101363.00;4956171;28;20005;-72
2022/03/07 04:16:00;;;;;;;;;;;;;;;5.95;56.04;101360.50;4973231;28;20632;-71
2022/03/07 04:18:26;;;;;;;;;;;;;;;5.94;56.46;101372.38;4949702;28;20439;-71
2022/03/07 04:20:51;;;;;;;;;;;;;;;5.89;56.86;101364.06;4944128;28;19924;-71
2022/03/07 04:23:20;;;;;;;;;;;;;;;5.83;56.40;101373.88;4970565;28;19998;-69
2022/03/07 04:25:46;;;;;;;;;;;;;;;5.80;56.36;101362.59;4940100;28;19929;-72
2022/03/07 04:28:11;;;;;;;;;;;;;;;5.76;56.59;101363.03;4958374;28;19910;-71
2022/03/07 04:30:37;;;;;;;;;;;;;;;5.73;56.69;101358.00;4949051;28;19929;-71
2022/03/07 04:33:02;;;;;;;;;;;;;;;5.73;56.82;101371.59;4966156;28;19921;-72
2022/03/07 04:35:27;;;;;;;;;;;;;;;5.73;56.50;101363.44;4946905;28;19956;-72
2022/03/07 04:37:55;;;;;;;;;;;;;;;5.77;56.42;101361.16;4970624;28;19939;-72
2022/03/07 04:40:20;;;;;;;;;;;;;;;5.77;57.00;101361.97;4944344;28;19982;-73
2022/03/07 04:42:46;;;;;;;;;;;;;;;5.80;56.39;101362.59;4965136;28;19949;-70
2022/03/07 04:45:11;;;;;;;;;;;;;;;5.81;57.18;101353.41;4966411;28;20008;-72
2022/03/07 04:47:37;;;;;;;;;;;;;;;5.83;56.56;101370.34;4950074;28;19933;-70
2022/03/07 04:50:03;;;;;;;;;;;;;;;5.85;57.26;101360.09;4954746;28;19917;-70
2022/03/07 04:52:28;;;;;;;;;;;;;;;5.90;57.35;101363.03;4942088;28;19997;-74
2022/03/07 04:54:53;;;;;;;;;;;;;;;5.93;56.63;101362.59;4956290;28;20009;-73
2022/03/07 04:57:19;;;;;;;;;;;;;;;5.93;56.64;101362.59;4932689;28;19922;-74
2022/03/07 04:59:45;;;;;;;;;;;;;;;5.93;56.47;101362.59;4945350;28;19992;-75
2022/03/07 05:02:11;;;;;;;;;;;;;;;5.91;56.84;101365.53;4939910;28;20738;-72
2022/03/07 05:04:37;;;;;;;;;;;;;;;5.92;56.44;101355.50;4948074;28;20025;-71
2022/03/07 05:07:02;;;;;;;;;;;;;;;5.90;56.49;101363.84;4975107;28;19914;-72
2022/03/07 05:09:27;;;;;;;;;;;;;;;5.90;56.76;101357.59;4973570;28;19921;-72
2022/03/07 05:11:53;;;;;;;;;;;;;;;5.90;56.81;101354.88;4966263;28;20684;-75
2022/03/07 05:14:18;;;;;;;;;;;;;;;5.88;56.29;101348.81;4974721;28;19957;-73
2022/03/07 05:16:43;;;;;;;;;;;;;;;5.77;56.89;101337.56;4970343;28;20344;-71
2022/03/07 05:19:09;;;;;;;;;;;;;;;5.61;56.05;101338.00;4954533;28;19932;-72
2022/03/07 05:21:36;;;;;;;;;;;;;;;5.44;56.58;101334.06;4971978;28;20009;-73
2022/03/07 05:24:02;;;;;;;;;;;;;;;5.31;56.41;101343.84;4946657;28;19921;-73
2022/03/07 05:26:27;;;;;;;;;;;;;;;5.20;56.59;101344.50;4962096;28;19914;-72
2022/03/07 05:28:52;;;;;;;;;;;;;;;5.11;56.97;101337.59;4954467;28;19937;-72
2022/03/07 05:31:19;;;;;;;;;;;;;;;5.05;56.68;101345.53;4977634;28;20021;-72
2022/03/07 05:33:44;;;;;;;;;;;;;;;5.01;56.61;101341.53;4953944;28;19968;-73
2022/03/07 05:36:09;;;;;;;;;;;;;;;4.94;56.70;101343.41;4979860;28;19922;-73
2022/03/07 05:38:35;;;;;;;;;;;;;;;4.83;57.05;101338.59;4967872;28;19920;-71
2022/03/07 05:41:00;;;;;;;;;;;;;;;4.70;56.93;101345.66;4970289;28;19929;-72
2022/03/07 05:43:26;;;;;;;;;;;;;;;4.60;57.64;101342.50;4971186;28;19914;-72
2022/03/07 05:45:51;;;;;;;;;;;;;;;4.53;57.29;101347.06;4958868;28;20050;-74
2022/03/07 05:48:16;;;;;;;;;;;;;;;4.46;57.67;101340.78;4956265;28;19917;-73
2022/03/07 05:50:42;;;;;;;;;;;;;;;4.41;57.77;101335.13;4971537;28;20013;-71
2022/03/07 05:53:07;;;;;;;;;;;;;;;4.40;58.07;101341.59;4969104;28;19917;-72
2022/03/07 05:55:32;;;;;;;;;;;;;;;4.37;57.87;101335.53;4973753;28;19921;-72
2022/03/07 05:58:00;;;;;;;;;;;;;;;4.37;58.38;101334.72;4964219;28;20008;-73
2022/03/07 06:00:26;;;;;;;;;;;;;;;4.39;58.59;101329.91;4953423;28;20008;-71
2022/03/07 06:02:54;;;;;;;;;;;;;;;4.43;58.53;101330.38;4960425;28;19953;-72
2022/03/07 06:05:19;;;;;;;;;;;;;;;4.51;58.86;101327.47;4946616;28;19914;-72
2022/03/07 06:07:45;;;;;;;;;;;;;;;4.57;58.94;101325.81;4953131;28;19921;-71
2022/03/07 06:10:10;;;;;;;;;;;;;;;4.62;58.90;101326.88;4945605;28;19918;-70
2022/03/07 06:12:36;;;;;;;;;;;;;;;4.71;58.88;101328.34;4964142;28;19949;-71
2022/03/07 06:15:04;;;;;;;;;;;;;;;4.79;58.95;101323.78;4959036;28;19925;-71
2022/03/07 06:17:33;;;;;;;;;;;;;;;4.89;59.42;101332.34;4969560;28;19989;-70
2022/03/07 06:19:59;;;;;;;;;;;;;;;4.98;59.03;101324.84;4951881;28;19976;-70
2022/03/07 06:22:26;;;;;;;;;;;;;;;5.05;58.73;101333.81;4953327;28;19922;-72
2022/03/07 06:24:52;;;;;;;;;;;;;;;5.11;59.23;101327.59;4962157;28;19941;-72
2022/03/07 06:27:17;;;;;;;;;;;;;;;5.17;59.08;101331.31;4956663;28;19926;-72
2022/03/07 06:29:43;;;;;;;;;;;;;;;5.21;58.96;101327.16;4975164;28;19917;-74
2022/03/07 06:32:08;;;;;;;;;;;;;;;5.23;59.36;101330.50;4957862;28;19919;-72
2022/03/07 06:34:34;;;;;;;;;;;;;;;5.27;59.37;101325.50;4971837;28;19941;-72
2022/03/07 06:37:01;;;;;;;;;;;;;;;5.31;58.59;101326.75;4971827;28;19918;-72
2022/03/07 06:39:27;;;;;;;;;;;;;;;5.35;58.97;101328.84;4966114;28;19969;-72
2022/03/07 06:41:54;;;;;;;;;;;;;;;5.38;58.38;101322.97;4965989;28;19948;-73
2022/03/07 06:44:23;;;;;;;;;;;;;;;5.41;59.14;101327.97;4941849;28;19914;-75
2022/03/07 06:46:48;;;;;;;;;;;;;;;5.45;58.44;101324.84;4957403;28;20712;-73
2022/03/07 06:49:14;;;;;;;;;;;;;;;5.48;58.69;101324.47;4957358;28;19987;-74
2022/03/07 06:51:56;;;;;;;;;;;;;;;5.48;58.37;101322.56;4962734;28;19915;-73
2022/03/07 06:54:24;;;;;;;;;;;;;;;5.48;58.42;101324.47;4961287;28;19922;-73
2022/03/07 06:56:52;;;;;;;;;;;;;;;5.41;58.36;101327.97;4945176;28;19910;-72
2022/03/07 06:59:20;;;;;;;;;;;;;;;5.38;59.08;101320.28;4948963;28;19995;-72
2022/03/07 07:01:48;;;;;;;;;;;;;;;5.38;59.41;101317.56;4950123;28;19922;-72
2022/03/07 07:04:13;;;;;;;;;;;;;;;5.39;59.53;101319.25;4967468;28;19914;-72
2022/03/07 07:06:38;;;;;;;;;;;;;;;5.38;59.13;101322.97;4969520;28;19916;-71
2022/03/07 07:09:04;;;;;;;;;;;;;;;5.38;59.57;101316.75;4966171;28;20078;-73
2022/03/07 07:11:29;;;;;;;;;;;;;;;5.40;59.10;101320.91;4951262;28;20011;-72
2022/03/07 07:14:04;;;;;;;;;;;;;;;5.39;59.66;101319.25;4967371;28;19918;-72
2022/03/07 07:16:29;;;;;;;;;;;;;;;5.40;59.87;101318.19;4959865;28;19987;-74
2022/03/07 07:18:55;;;;;;;;;;;;;;;5.45;59.88;101316.72;4954803;28;20403;-75
2022/03/07 07:21:22;;;;;;;;;;;;;;;5.49;59.75;101317.97;4970310;28;20364;-76
2022/03/07 07:23:48;;;;;;;;;;;;;;;5.52;59.19;101317.53;4959775;28;19914;-76
2022/03/07 07:26:18;;;;;;;;;;;;;;;5.56;59.23;101316.94;4956179;28;19918;-75
2022/03/07 07:28:45;;;;;;;;;;;;;;;5.60;59.30;101320.03;4956797;28;20269;-74
2022/03/07 07:31:10;;;;;;;;;;;;;;;5.63;60.17;101321.50;4964559;28;19913;-74
2022/03/07 07:33:36;;;;;;;;;;;;;;;5.69;59.91;101313.34;4973273;28;19910;-74
2022/03/07 07:36:02;;;;;;;;;;;;;;;5.75;59.28;101306.22;4966410;28;19925;-73
2022/03/07 07:38:28;;;;;;;;;;;;;;;5.78;59.17;101311.22;4980429;28;19913;-73
2022/03/07 07:40:55;;;;;;;;;;;;;;;5.77;59.01;101318.56;4970583;28;20802;-73
2022/03/07 07:43:23;;;;;;;;;;;;;;;5.77;59.19;101310.41;4968865;28;20001;-73
2022/03/07 07:45:48;;;;;;;;;;;;;;;5.80;59.93;101308.31;4968282;28;19940;-73
2022/03/07 07:48:14;;;;;;;;;;;;;;;5.84;60.15;101306.84;4956006;28;20360;-73
2022/03/07 07:50:39;;;;;;;;;;;;;;;5.89;59.51;101301.63;4968606;28;19942;-71
2022/03/07 07:53:04;;;;;;;;;;;;;;;5.98;60.20;101300.38;4959687;28;20119;-73
2022/03/07 07:55:32;;;;;;;;;;;;;;;6.08;59.12;101299.91;4975938;28;19929;-73
2022/03/07 07:58:03;;;;;;;;;;;;;;;6.19;59.23;101295.69;4967884;28;19916;-74
2022/03/07 08:00:28;;;;;;;;;;;;;;;6.23;60.18;101307.78;4956238;28;19926;-73
2022/03/07 08:02:56;;;;;;;;;;;;;;;6.31;59.12;101304.00;4944411;28;19977;-72
2022/03/07 08:05:21;;;;;;;;;;;;;;;6.37;60.28;101301.25;4970876;28;19952;-73
2022/03/07 08:07:47;;;;;;;;;;;;;;;6.46;59.76;101302.66;4970632;28;20352;-71
2022/03/07 08:10:14;;;;;;;;;;;;;;;6.54;60.22;101306.19;4960727;28;19940;-73
2022/03/07 08:12:42;;;;;;;;;;;;;;;6.61;60.03;101304.25;4963812;28;20348;-72
2022/03/07 08:15:13;;;;;;;;;;;;;;;6.66;59.66;101301.72;4964116;28;19941;-75
2022/03/07 08:17:43;;;;;;;;;;;;;;;6.76;60.09;101296.66;4970990;28;20461;-74
2022/03/07 08:20:29;;;;;;;;;;;;;;;6.89;59.82;101300.31;4972657;28;19913;-74
2022/03/07 08:22:54;;;;;;;;;;;;;;;6.99;60.02;101300.66;4950776;28;19929;-74
2022/03/07 08:25:21;;;;;;;;;;;;;;;7.05;59.04;101299.75;4970612;28;19914;-73
2022/03/07 08:27:46;;;;;;;;;;;;;;;7.12;59.73;101297.00;4954786;28;19914;-73
2022/03/07 08:30:16;;;;;;;;;;;;;;;7.18;59.15;101298.00;4964165;28;20292;-75
2022/03/07 08:32:41;;;;;;;;;;;;;;;7.25;59.09;101293.34;4952980;28;19921;-74
2022/03/07 08:35:07;;;;;;;;;;;;;;;7.33;59.64;101284.91;4969816;28;19913;-75
2022/03/07 08:37:33;;;;;;;;;;;;;;;7.44;58.88;101294.22;4944739;28;19973;-75
2022/03/07 08:39:59;;;;;;;;;;;;;;;7.53;58.78;101289.31;4962497;28;19945;-74
2022/03/07 08:42:25;;;;;;;;;;;;;;;7.61;59.47;101292.59;4964283;28;19910;-75
2022/03/07 08:44:52;;;;;;;;;;;;;;;7.64;59.30;101292.13;4971397;28;19928;-72
2022/03/07 08:47:20;;;;;;;;;;;;;;;7.66;58.23;101289.19;4971814;28;19918;-73
2022/03/07 08:49:46;;;;;;;;;;;;;;;7.70;59.35;101287.69;4959608;28;20009;-74
2022/03/07 08:52:15;;;;;;;;;;;;;;;7.72;58.58;101301.88;4972753;28;19988;-75
2022/03/07 08:54:40;;;;;;;;;;;;;;;7.74;58.40;101290.75;4969674;28;19914;-73
2022/03/07 08:57:06;;;;;;;;;;;;;;;7.73;58.88;101289.13;4947650;28;19986;-72
2022/03/07 08:59:31;;;;;;;;;;;;;;;7.73;58.00;101292.66;4967532;28;19941;-72
2022/03/07 09:01:57;;;;;;;;;;;;;;;7.80;59.38;101289.88;4968667;28;20005;-73
2022/03/07 09:04:24;;;;;;;;;;;;;;;7.89;58.26;101284.97;4945670;28;19926;-72
2022/03/07 09:06:50;;;;;;;;;;;;;;;7.98;58.93;101286.31;4952538;28;19921;-71
2022/03/07 09:09:15;;;;;;;;;;;;;;;8.09;58.17;101293.75;4949664;28;19932;-73
2022/03/07 09:11:40;;;;;;;;;;;;;;;8.20;58.63;101295.66;4971917;28;19963;-70
2022/03/07 09:14:06;;;;;;;;;;;;;;;8.24;58.83;101290.63;4950606;28;19929;-75
2022/03/07 09:16:33;;;;;;;;;;;;;;;8.27;58.13;101286.59;4969324;28;19914;-75
2022/03/07 09:18:59;;;;;;;;;;;;;;;8.33;58.68;101291.13;4950859;28;19954;-71
2022/03/07 09:21:24;;;;;;;;;;;;;;;8.31;57.30;101290.50;4937664;28;19960;-75
2022/03/07 09:23:49;;;;;;;;;;;;;;;8.32;57.40;101289.47;4967234;28;19917;-73
2022/03/07 09:26:17;;;;;;;;;;;;;;;8.36;57.39;101282.50;4949792;28;20382;-75
2022/03/07 09:28:45;;;;;;;;;;;;;;;8.42;57.23;101287.00;4946249;28;19914;-75
2022/03/07 09:31:10;;;;;;;;;;;;;;;8.54;56.86;101281.63;4959180;28;20375;-73
2022/03/07 09:33:39;;;;;;;;;;;;;;;8.71;56.88;101273.63;4946411;28;19945;-75
2022/03/07 09:36:04;;;;;;;;;;;;;;;8.80;56.34;101276.88;4961576;28;19914;-72
2022/03/07 09:38:30;;;;;;;;;;;;;;;8.85;56.44;101274.28;4969167;28;20475;-72
2022/03/07 09:40:56;;;;;;;;;;;;;;;8.86;55.52;101260.41;4943082;28;19918;-74
2022/03/07 09:43:24;;;;;;;;;;;;;;;8.79;55.41;101259.69;4962241;28;19925;-74
2022/03/07 09:45:49;;;;;;;;;;;;;;;8.73;54.60;101260.59;4918130;28;19914;-74
2022/03/07 09:48:15;;;;;;;;;;;;;;;8.67;54.42;101256.06;4933171;29;19922;-71
2022/03/07 09:50:42;;;;;;;;;;;;;;;8.61;54.65;101262.47;4911550;29;19938;-73
2022/03/07 09:53:13;;;;;;;;;;;;;;;8.56;54.44;101250.34;4914995;29;19923;-72
2022/03/07 09:55:38;;;;;;;;;;;;;;;8.58;54.41;101252.03;4901494;29;19919;-74
2022/03/07 09:58:05;;;;;;;;;;;;;;;8.55;54.42;101251.41;4928512;29;20270;-75
2022/03/07 10:00:33;;;;;;;;;;;;;;;8.53;53.18;101256.28;4918735;29;19922;-78
2022/03/07 10:03:02;;;;;;;;;;;;;;;8.50;53.19;101243.13;4933778;28;19915;-79
2022/03/07 10:05:32;;;;;;;;;;;;;;;8.47;51.54;101229.97;4919730;29;19921;-79
2022/03/07 10:07:57;;;;;;;;;;;;;;;8.55;52.29;101236.97;4903565;29;20285;-79
2022/03/07 10:10:27;;;;;;;;;;;;;;;8.55;50.57;101226.88;4912366;29;19917;-78
2022/03/07 10:12:52;;;;;;;;;;;;;;;8.51;51.04;101220.25;4924080;29;19934;-76
2022/03/07 10:15:18;;;;;;;;;;;;;;;8.50;50.59;101224.03;4916119;29;19919;-76
2022/03/07 10:18:10;;;;;;;;;;;;;;;8.54;51.32;101217.06;4915879;29;20016;-78
2022/03/07 10:20:35;;;;;;;;;;;;;;;8.62;51.48;101218.59;4908407;29;19923;-78
2022/03/07 10:23:04;;;;;;;;;;;;;;;8.72;51.11;101218.06;4922940;29;19915;-77
2022/03/07 10:25:32;;;;;;;;;;;;;;;8.89;51.87;101216.28;4920394;29;20345;-78
2022/03/07 10:28:14;;;;;;;;;;;;;;;;;;;;;
2022/03/07 10:30:39;;;;;;;;;;;;;;;9.32;51.59;101200.63;4919286;29;20362;-78
2022/03/07 10:33:06;;;;;;;;;;;;;;;9.47;50.57;101205.59;4922162;29;19946;-79
2022/03/07 10:35:36;;;;;;;;;;;;;;;9.54;49.82;101206.31;4919277;29;20002;-78
2022/03/07 10:38:10;;;;;;;;;;;;;;;9.46;48.84;101187.53;4912271;29;19917;-77
2022/03/07 10:40:39;;;;;;;;;;;;;;;9.45;49.12;101194.09;4924360;29;19915;-77
2022/03/07 10:43:05;;;;;;;;;;;;;;;9.58;49.24;101190.28;4907740;29;20324;-76
2022/03/07 10:45:43;;;;;;;;;;;;;;;9.63;47.79;101178.63;4911959;29;19922;-79
2022/03/07 10:48:11;;;;;;;;;;;;;;;9.89;47.96;101179.97;4929803;29;19955;-78
2022/03/07 10:50:48;;;;;;;;;;;;;;;;;;;;;
2022/03/07 10:53:14;;;;;;;;;;;;;;;13.97;49.05;101184.44;4929030;29;19929;-75
2022/03/07 10:55:40;;;;;;;;;;;;;;;16.48;45.51;101182.28;4927441;29;20013;-76
2022/03/07 10:58:06;;;;;;;;;;;;;;;17.26;40.03;101174.19;4917759;29;19974;-75
2022/03/07 11:00:32;;;;;;;;;;;;;;;16.69;38.40;101176.59;4910669;29;19919;-77
2022/03/07 11:03:00;;;;;;;;;;;;;;;15.90;37.17;101169.13;4918565;29;19929;-75
2022/03/07 11:05:26;;;;;;;;;;;;;;;15.19;37.15;101163.59;4929724;29;20018;-76
2022/03/07 11:07:53;;;;;;;;;;;;;;;14.61;37.51;101160.31;4930940;29;19918;-77
2022/03/07 11:10:21;;;;;;;;;;;;;;;14.09;38.46;101152.03;4912300;29;19914;-74
2022/03/07 11:12:47;;;;;;;;;;;;;;;13.78;38.90;101160.19;4942062;28;19985;-73
2022/03/07 11:15:18;;;;;;;;;;;;;;;13.44;38.11;101141.34;4931313;29;19930;-72
2022/03/07 11:17:45;;;;;;;;;;;;;;;13.12;39.30;101146.09;4950916;28;19950;-69
2022/03/07 11:20:12;;;;;;;;;;;;;;;12.90;39.67;101130.59;4944789;28;19945;-71
2022/03/07 11:22:37;;;;;;;;;;;;;;;12.67;39.42;101137.28;4944860;28;19921;-70
2022/03/07 11:25:03;;;;;;;;;;;;;;;12.78;41.05;101125.28;4935797;28;19919;-73
2022/03/07 11:27:29;;;;;;;;;;;;;;;14.15;40.95;101114.34;4938444;28;19918;-72
2022/03/07 11:30:00;;;;;;;;;;;;;;;16.31;39.69;101115.63;4931828;29;19915;-73
2022/03/07 11:32:26;;;;;;;;;;;;;;;18.48;37.18;101121.06;4932175;28;19922;-73
2022/03/07 11:34:53;;;;;;;;;;;;;;;19.67;34.85;101114.13;4931001;29;19919;-74
2022/03/07 11:37:19;;;;;;;;;;;;;;;20.79;32.59;101116.50;4929136;29;19949;-73
2022/03/07 11:39:52;;;;;;;;;;;;;;;21.20;30.12;101118.16;4944364;28;20373;-74
2022/03/07 11:42:20;;;;;;;;;;;;;;;21.32;29.54;101109.19;4942435;28;19918;-75
2022/03/07 11:44:47;;;;;;;;;;;;;;;21.06;27.73;101096.84;4939415;28;20622;-75
2022/03/07 11:47:23;;;;;;;;;;;;;;;20.05;27.61;101086.09;4922628;29;19915;-78
2022/03/07 11:49:58;;;;;;;;;;;;;;;20.35;27.94;101083.69;4944106;28;19914;-74
2022/03/07 11:52:24;;;;;;;;;;;;;;;21.50;29.09;101090.63;4941673;28;19927;-72
2022/03/07 11:54:59;;;;;;;;;;;;;;;22.39;28.22;101082.81;4936528;28;19985;-77
2022/03/07 11:57:46;;;;;;;;;;;;;;;24.02;27.30;101073.50;4945423;28;19914;-75
2022/03/07 12:00:13;;;;;;;;;;;;;;;25.61;25.32;101066.53;4941955;28;19910;-76
2022/03/07 12:02:42;;;;;;;;;;;;;;;26.21;23.21;101062.28;4935497;29;20387;-75
2022/03/07 12:05:18;;;;;;;;;;;;;;;26.69;22.27;101062.38;4939008;28;19918;-76
2022/03/07 12:07:44;;;;;;;;;;;;;;;26.71;21.84;101048.81;4936592;28;19933;-75
2022/03/07 12:10:09;;;;;;;;;;;;;;;27.17;21.31;101049.13;4932332;28;20337;-75
2022/03/07 12:12:37;;;;;;;;;;;;;;;27.04;20.29;101048.44;4927690;29;19955;-76
2022/03/07 12:15:06;;;;;;;;;;;;;;;27.07;20.18;101044.91;4945026;28;19918;-77
2022/03/07 12:17:32;;;;;;;;;;;;;;;27.24;20.23;101037.28;4937954;29;20415;-76
2022/03/07 12:19:58;;;;;;;;;;;;;;;27.97;20.48;101030.06;4937138;29;19926;-75
2022/03/07 12:22:36;;;;;;;;;;;;;;;28.89;20.10;101017.28;4941636;28;19910;-76
2022/03/07 12:25:06;;;;;;;;;;;;;;;28.49;18.76;101015.78;4938125;29;19925;-75
2022/03/07 12:27:41;;;;;;;;;;;;;;;28.91;19.89;101003.63;4933250;28;19919;-73
2022/03/07 12:30:08;;;;;;;;;;;;;;;29.42;18.17;100993.94;4950171;28;19918;-72
2022/03/07 12:32:36;;;;;;;;;;;;;;;29.05;17.37;101006.69;4947865;28;19918;-73
2022/03/07 12:35:08;;;;;;;;;;;;;;;29.45;17.89;101004.44;4923797;29;20560;-74
2022/03/07 12:37:37;;;;;;;;;;;;;;;30.05;17.72;100986.69;4924066;28;19914;-73
2022/03/07 12:40:07;;;;;;;;;;;;;;;30.49;17.11;100981.47;4939545;28;19925;-72
2022/03/07 12:42:33;;;;;;;;;;;;;;;30.61;16.52;100978.38;4918762;29;19910;-73
2022/03/07 12:45:01;;;;;;;;;;;;;;;30.60;16.35;100976.75;4937727;28;20075;-73